sensor_id;sensor_type;location;lat;lon;timestamp;P1;durP1;ratioP1;P2;durP2;ratioP2
43809;SDS011;29440;48.208;11.162;2023-07-29T00:01:51;3.55;;;1.77;;
43809;SDS011;29440;48.208;11.162;2023-07-29T00:04:18;3.78;;;2.28;;
43809;SDS011;29440;48.208;11.162;2023-07-29T00:06:45;4.38;;;2.38;;
43809;SDS011;29440;48.208;11.162;2023-07-29T00:09:11;3.58;;;2.15;;
43809;SDS011;29440;48.208;11.162;2023-07-29T00:11:37;8.52;;;2.25;;
43809;SDS011;29440;48.208;11.162;2023-07-29T00:14:03;3.08;;;2.28;;
43809;SDS011;29440;48.208;11.162;2023-07-29T00:16:28;3.83;;;2.17;;
43809;SDS011;29440;48.208;11.162;2023-07-29T00:18:54;3.40;;;1.95;;
43809;SDS011;29440;48.208;11.162;2023-07-29T00:21:20;3.83;;;2.88;;
43809;SDS011;29440;48.208;11.162;2023-07-29T00:23:45;4.63;;;2.78;;
43809;SDS011;29440;48.208;11.162;2023-07-29T00:26:11;5.50;;;2.72;;
43809;SDS011;29440;48.208;11.162;2023-07-29T00:28:36;5.03;;;2.03;;
43809;SDS011;29440;48.208;11.162;2023-07-29T00:31:02;4.88;;;2.30;;
43809;SDS011;29440;48.208;11.162;2023-07-29T00:33:27;4.95;;;2.40;;
43809;SDS011;29440;48.208;11.162;2023-07-29T00:35:53;4.50;;;2.70;;
43809;SDS011;29440;48.208;11.162;2023-07-29T00:38:19;4.57;;;2.15;;
43809;SDS011;29440;48.208;11.162;2023-07-29T00:40:44;4.53;;;2.17;;
43809;SDS011;29440;48.208;11.162;2023-07-29T00:43:11;3.20;;;2.33;;
43809;SDS011;29440;48.208;11.162;2023-07-29T00:45:36;5.00;;;2.22;;
43809;SDS011;29440;48.208;11.162;2023-07-29T00:48:03;2.60;;;2.03;;
43809;SDS011;29440;48.208;11.162;2023-07-29T00:50:29;4.65;;;1.75;;
43809;SDS011;29440;48.208;11.162;2023-07-29T00:52:57;3.00;;;2.00;;
43809;SDS011;29440;48.208;11.162;2023-07-29T00:55:23;5.20;;;2.08;;
43809;SDS011;29440;48.208;11.162;2023-07-29T00:57:49;5.00;;;2.10;;
43809;SDS011;29440;48.208;11.162;2023-07-29T01:00:19;3.15;;;2.03;;
43809;SDS011;29440;48.208;11.162;2023-07-29T01:02:45;4.22;;;2.20;;
43809;SDS011;29440;48.208;11.162;2023-07-29T01:05:12;3.33;;;1.85;;
43809;SDS011;29440;48.208;11.162;2023-07-29T01:10:13;3.30;;;2.03;;
43809;SDS011;29440;48.208;11.162;2023-07-29T01:13:27;5.50;;;2.40;;
43809;SDS011;29440;48.208;11.162;2023-07-29T01:15:54;3.58;;;1.60;;
43809;SDS011;29440;48.208;11.162;2023-07-29T01:18:26;2.70;;;1.73;;
43809;SDS011;29440;48.208;11.162;2023-07-29T01:21:03;3.33;;;1.65;;
43809;SDS011;29440;48.208;11.162;2023-07-29T01:23:33;4.55;;;1.90;;
43809;SDS011;29440;48.208;11.162;2023-07-29T01:25:59;3.95;;;1.80;;
43809;SDS011;29440;48.208;11.162;2023-07-29T01:28:26;12.25;;;2.85;;
43809;SDS011;29440;48.208;11.162;2023-07-29T01:30:57;5.13;;;2.10;;
43809;SDS011;29440;48.208;11.162;2023-07-29T01:33:56;3.67;;;2.13;;
43809;SDS011;29440;48.208;11.162;2023-07-29T01:36:25;5.20;;;2.50;;
43809;SDS011;29440;48.208;11.162;2023-07-29T01:38:54;3.30;;;1.80;;
43809;SDS011;29440;48.208;11.162;2023-07-29T01:41:21;4.88;;;2.17;;
43809;SDS011;29440;48.208;11.162;2023-07-29T01:43:49;4.45;;;2.00;;
43809;SDS011;29440;48.208;11.162;2023-07-29T01:46:15;4.95;;;1.67;;
43809;SDS011;29440;48.208;11.162;2023-07-29T01:48:41;3.65;;;1.80;;
43809;SDS011;29440;48.208;11.162;2023-07-29T01:51:07;2.38;;;1.67;;
43809;SDS011;29440;48.208;11.162;2023-07-29T01:53:36;3.35;;;2.03;;
43809;SDS011;29440;48.208;11.162;2023-07-29T01:56:02;4.28;;;2.10;;
43809;SDS011;29440;48.208;11.162;2023-07-29T01:58:28;7.50;;;2.30;;
43809;SDS011;29440;48.208;11.162;2023-07-29T02:00:54;3.70;;;2.10;;
43809;SDS011;29440;48.208;11.162;2023-07-29T02:03:20;4.43;;;2.15;;
43809;SDS011;29440;48.208;11.162;2023-07-29T02:05:45;2.70;;;1.83;;
43809;SDS011;29440;48.208;11.162;2023-07-29T02:08:11;4.20;;;1.90;;
43809;SDS011;29440;48.208;11.162;2023-07-29T02:10:37;6.07;;;2.88;;
43809;SDS011;29440;48.208;11.162;2023-07-29T02:13:03;5.38;;;1.88;;
43809;SDS011;29440;48.208;11.162;2023-07-29T02:15:29;4.15;;;2.08;;
43809;SDS011;29440;48.208;11.162;2023-07-29T02:17:55;2.92;;;1.85;;
43809;SDS011;29440;48.208;11.162;2023-07-29T02:20:20;3.10;;;2.65;;
43809;SDS011;29440;48.208;11.162;2023-07-29T02:22:46;4.00;;;2.38;;
43809;SDS011;29440;48.208;11.162;2023-07-29T02:25:13;5.40;;;2.20;;
43809;SDS011;29440;48.208;11.162;2023-07-29T02:27:39;4.78;;;2.00;;
43809;SDS011;29440;48.208;11.162;2023-07-29T02:30:05;4.55;;;2.28;;
43809;SDS011;29440;48.208;11.162;2023-07-29T02:32:31;3.33;;;1.67;;
43809;SDS011;29440;48.208;11.162;2023-07-29T02:34:56;3.13;;;2.10;;
43809;SDS011;29440;48.208;11.162;2023-07-29T02:37:22;3.22;;;1.90;;
43809;SDS011;29440;48.208;11.162;2023-07-29T02:39:48;2.28;;;1.23;;
43809;SDS011;29440;48.208;11.162;2023-07-29T02:42:13;2.33;;;1.55;;
43809;SDS011;29440;48.208;11.162;2023-07-29T02:44:39;4.18;;;2.25;;
43809;SDS011;29440;48.208;11.162;2023-07-29T02:47:05;4.15;;;1.92;;
43809;SDS011;29440;48.208;11.162;2023-07-29T02:49:31;3.58;;;2.17;;
43809;SDS011;29440;48.208;11.162;2023-07-29T02:51:56;5.13;;;1.90;;
43809;SDS011;29440;48.208;11.162;2023-07-29T02:54:22;3.65;;;2.28;;
43809;SDS011;29440;48.208;11.162;2023-07-29T02:56:49;5.07;;;1.75;;
43809;SDS011;29440;48.208;11.162;2023-07-29T02:59:15;3.08;;;2.03;;
43809;SDS011;29440;48.208;11.162;2023-07-29T03:01:41;3.38;;;1.75;;
43809;SDS011;29440;48.208;11.162;2023-07-29T03:04:07;3.63;;;2.10;;
43809;SDS011;29440;48.208;11.162;2023-07-29T03:06:33;5.03;;;2.00;;
43809;SDS011;29440;48.208;11.162;2023-07-29T03:08:58;4.05;;;1.98;;
43809;SDS011;29440;48.208;11.162;2023-07-29T03:11:24;5.43;;;2.20;;
43809;SDS011;29440;48.208;11.162;2023-07-29T03:13:49;4.03;;;2.05;;
43809;SDS011;29440;48.208;11.162;2023-07-29T03:16:16;3.67;;;1.77;;
43809;SDS011;29440;48.208;11.162;2023-07-29T03:18:43;4.25;;;2.17;;
43809;SDS011;29440;48.208;11.162;2023-07-29T03:21:09;3.28;;;1.83;;
43809;SDS011;29440;48.208;11.162;2023-07-29T03:23:35;5.15;;;1.98;;
43809;SDS011;29440;48.208;11.162;2023-07-29T03:26:01;2.25;;;1.83;;
43809;SDS011;29440;48.208;11.162;2023-07-29T03:28:34;2.30;;;1.93;;
43809;SDS011;29440;48.208;11.162;2023-07-29T03:31:01;2.90;;;1.85;;
43809;SDS011;29440;48.208;11.162;2023-07-29T03:33:27;4.55;;;1.83;;
43809;SDS011;29440;48.208;11.162;2023-07-29T03:35:53;3.38;;;1.90;;
43809;SDS011;29440;48.208;11.162;2023-07-29T03:38:18;3.75;;;2.35;;
43809;SDS011;29440;48.208;11.162;2023-07-29T03:40:44;3.25;;;1.90;;
43809;SDS011;29440;48.208;11.162;2023-07-29T03:43:10;5.15;;;2.22;;
43809;SDS011;29440;48.208;11.162;2023-07-29T03:45:35;6.90;;;2.28;;
43809;SDS011;29440;48.208;11.162;2023-07-29T03:48:02;2.60;;;2.00;;
43809;SDS011;29440;48.208;11.162;2023-07-29T03:50:28;4.30;;;2.25;;
43809;SDS011;29440;48.208;11.162;2023-07-29T03:52:54;2.88;;;1.63;;
43809;SDS011;29440;48.208;11.162;2023-07-29T03:55:20;5.05;;;1.85;;
43809;SDS011;29440;48.208;11.162;2023-07-29T03:57:46;2.90;;;1.80;;
43809;SDS011;29440;48.208;11.162;2023-07-29T04:00:12;2.75;;;1.95;;
43809;SDS011;29440;48.208;11.162;2023-07-29T04:02:38;3.08;;;2.20;;
43809;SDS011;29440;48.208;11.162;2023-07-29T04:05:04;4.63;;;1.80;;
43809;SDS011;29440;48.208;11.162;2023-07-29T04:07:31;4.53;;;2.40;;
43809;SDS011;29440;48.208;11.162;2023-07-29T04:09:57;6.50;;;2.22;;
43809;SDS011;29440;48.208;11.162;2023-07-29T04:12:23;3.13;;;1.95;;
43809;SDS011;29440;48.208;11.162;2023-07-29T04:14:48;2.28;;;1.80;;
43809;SDS011;29440;48.208;11.162;2023-07-29T04:17:14;2.67;;;1.67;;
43809;SDS011;29440;48.208;11.162;2023-07-29T04:19:40;3.40;;;1.80;;
43809;SDS011;29440;48.208;11.162;2023-07-29T04:22:06;3.17;;;1.90;;
43809;SDS011;29440;48.208;11.162;2023-07-29T04:24:31;3.53;;;1.70;;
43809;SDS011;29440;48.208;11.162;2023-07-29T04:26:57;3.08;;;1.50;;
43809;SDS011;29440;48.208;11.162;2023-07-29T04:29:23;3.42;;;1.70;;
43809;SDS011;29440;48.208;11.162;2023-07-29T04:31:49;4.28;;;1.90;;
43809;SDS011;29440;48.208;11.162;2023-07-29T04:34:25;2.70;;;1.95;;
43809;SDS011;29440;48.208;11.162;2023-07-29T04:36:54;2.95;;;2.03;;
43809;SDS011;29440;48.208;11.162;2023-07-29T04:39:20;3.17;;;2.10;;
43809;SDS011;29440;48.208;11.162;2023-07-29T04:41:45;5.25;;;1.80;;
43809;SDS011;29440;48.208;11.162;2023-07-29T04:44:11;4.93;;;1.98;;
43809;SDS011;29440;48.208;11.162;2023-07-29T04:46:37;2.55;;;1.67;;
43809;SDS011;29440;48.208;11.162;2023-07-29T04:49:03;2.83;;;1.65;;
43809;SDS011;29440;48.208;11.162;2023-07-29T04:51:29;4.55;;;1.92;;
43809;SDS011;29440;48.208;11.162;2023-07-29T04:53:56;2.45;;;1.85;;
43809;SDS011;29440;48.208;11.162;2023-07-29T04:56:22;3.28;;;1.80;;
43809;SDS011;29440;48.208;11.162;2023-07-29T04:58:48;3.42;;;1.60;;
43809;SDS011;29440;48.208;11.162;2023-07-29T05:01:13;2.17;;;1.40;;
43809;SDS011;29440;48.208;11.162;2023-07-29T05:03:39;4.15;;;2.13;;
43809;SDS011;29440;48.208;11.162;2023-07-29T05:06:04;2.58;;;1.50;;
43809;SDS011;29440;48.208;11.162;2023-07-29T05:08:30;3.25;;;1.63;;
43809;SDS011;29440;48.208;11.162;2023-07-29T05:10:56;4.45;;;1.60;;
43809;SDS011;29440;48.208;11.162;2023-07-29T05:13:22;2.72;;;2.00;;
43809;SDS011;29440;48.208;11.162;2023-07-29T05:15:48;2.47;;;1.70;;
43809;SDS011;29440;48.208;11.162;2023-07-29T05:18:14;2.40;;;1.52;;
43809;SDS011;29440;48.208;11.162;2023-07-29T05:20:40;4.55;;;1.38;;
43809;SDS011;29440;48.208;11.162;2023-07-29T05:23:06;2.45;;;1.30;;
43809;SDS011;29440;48.208;11.162;2023-07-29T05:25:32;2.05;;;1.30;;
43809;SDS011;29440;48.208;11.162;2023-07-29T05:28:08;2.10;;;1.20;;
43809;SDS011;29440;48.208;11.162;2023-07-29T05:30:34;2.78;;;1.33;;
43809;SDS011;29440;48.208;11.162;2023-07-29T05:33:02;4.53;;;1.90;;
43809;SDS011;29440;48.208;11.162;2023-07-29T05:35:29;2.30;;;1.40;;
43809;SDS011;29440;48.208;11.162;2023-07-29T05:37:55;1.95;;;1.23;;
43809;SDS011;29440;48.208;11.162;2023-07-29T05:40:20;2.40;;;1.10;;
43809;SDS011;29440;48.208;11.162;2023-07-29T05:42:46;3.40;;;1.33;;
43809;SDS011;29440;48.208;11.162;2023-07-29T05:45:12;2.80;;;1.20;;
43809;SDS011;29440;48.208;11.162;2023-07-29T05:47:38;4.35;;;1.17;;
43809;SDS011;29440;48.208;11.162;2023-07-29T05:50:04;2.88;;;1.27;;
43809;SDS011;29440;48.208;11.162;2023-07-29T05:52:31;2.88;;;1.42;;
43809;SDS011;29440;48.208;11.162;2023-07-29T05:54:56;2.45;;;1.30;;
43809;SDS011;29440;48.208;11.162;2023-07-29T05:57:22;3.45;;;1.60;;
43809;SDS011;29440;48.208;11.162;2023-07-29T05:59:47;1.60;;;1.10;;
43809;SDS011;29440;48.208;11.162;2023-07-29T06:02:13;4.82;;;1.10;;
43809;SDS011;29440;48.208;11.162;2023-07-29T06:04:43;2.40;;;1.23;;
43809;SDS011;29440;48.208;11.162;2023-07-29T06:07:09;2.38;;;1.27;;
43809;SDS011;29440;48.208;11.162;2023-07-29T06:09:48;4.53;;;1.20;;
43809;SDS011;29440;48.208;11.162;2023-07-29T06:12:14;1.98;;;1.15;;
43809;SDS011;29440;48.208;11.162;2023-07-29T06:14:40;1.77;;;1.52;;
43809;SDS011;29440;48.208;11.162;2023-07-29T06:17:21;3.25;;;1.50;;
43809;SDS011;29440;48.208;11.162;2023-07-29T06:19:46;2.75;;;1.48;;
43809;SDS011;29440;48.208;11.162;2023-07-29T06:22:22;2.53;;;1.38;;
43809;SDS011;29440;48.208;11.162;2023-07-29T06:24:48;3.38;;;1.15;;
43809;SDS011;29440;48.208;11.162;2023-07-29T06:27:13;1.88;;;1.20;;
43809;SDS011;29440;48.208;11.162;2023-07-29T06:29:39;2.78;;;1.40;;
43809;SDS011;29440;48.208;11.162;2023-07-29T06:32:04;4.25;;;1.70;;
43809;SDS011;29440;48.208;11.162;2023-07-29T06:34:30;4.13;;;1.63;;
43809;SDS011;29440;48.208;11.162;2023-07-29T06:36:56;8.02;;;1.85;;
43809;SDS011;29440;48.208;11.162;2023-07-29T06:39:22;3.13;;;1.48;;
43809;SDS011;29440;48.208;11.162;2023-07-29T06:41:47;7.97;;;2.00;;
43809;SDS011;29440;48.208;11.162;2023-07-29T06:44:13;4.07;;;1.70;;
43809;SDS011;29440;48.208;11.162;2023-07-29T06:46:38;5.05;;;2.33;;
43809;SDS011;29440;48.208;11.162;2023-07-29T06:49:05;3.60;;;1.88;;
43809;SDS011;29440;48.208;11.162;2023-07-29T06:51:30;6.03;;;1.75;;
43809;SDS011;29440;48.208;11.162;2023-07-29T06:53:59;5.88;;;1.70;;
43809;SDS011;29440;48.208;11.162;2023-07-29T06:56:25;5.43;;;1.83;;
43809;SDS011;29440;48.208;11.162;2023-07-29T06:58:50;2.63;;;1.85;;
43809;SDS011;29440;48.208;11.162;2023-07-29T07:01:16;3.38;;;1.55;;
43809;SDS011;29440;48.208;11.162;2023-07-29T07:03:41;2.85;;;1.70;;
43809;SDS011;29440;48.208;11.162;2023-07-29T07:06:07;5.45;;;1.60;;
43809;SDS011;29440;48.208;11.162;2023-07-29T07:08:33;7.38;;;4.03;;
43809;SDS011;29440;48.208;11.162;2023-07-29T07:10:58;4.15;;;2.25;;
43809;SDS011;29440;48.208;11.162;2023-07-29T07:13:24;3.80;;;2.95;;
43809;SDS011;29440;48.208;11.162;2023-07-29T07:15:49;8.70;;;1.88;;
43809;SDS011;29440;48.208;11.162;2023-07-29T07:18:15;4.07;;;2.30;;
43809;SDS011;29440;48.208;11.162;2023-07-29T07:20:41;2.55;;;1.77;;
43809;SDS011;29440;48.208;11.162;2023-07-29T07:23:07;3.78;;;2.05;;
43809;SDS011;29440;48.208;11.162;2023-07-29T07:25:36;5.85;;;2.15;;
43809;SDS011;29440;48.208;11.162;2023-07-29T07:28:01;3.85;;;1.67;;
43809;SDS011;29440;48.208;11.162;2023-07-29T07:30:27;4.20;;;2.10;;
43809;SDS011;29440;48.208;11.162;2023-07-29T07:32:53;2.45;;;1.45;;
43809;SDS011;29440;48.208;11.162;2023-07-29T07:35:19;2.95;;;1.83;;
43809;SDS011;29440;48.208;11.162;2023-07-29T07:37:45;3.45;;;1.65;;
43809;SDS011;29440;48.208;11.162;2023-07-29T07:40:10;6.03;;;2.15;;
43809;SDS011;29440;48.208;11.162;2023-07-29T07:42:36;5.25;;;1.83;;
43809;SDS011;29440;48.208;11.162;2023-07-29T07:45:02;4.25;;;1.60;;
43809;SDS011;29440;48.208;11.162;2023-07-29T07:47:28;3.60;;;1.65;;
43809;SDS011;29440;48.208;11.162;2023-07-29T07:49:53;2.60;;;1.48;;
43809;SDS011;29440;48.208;11.162;2023-07-29T07:52:19;9.45;;;2.28;;
43809;SDS011;29440;48.208;11.162;2023-07-29T07:54:44;3.72;;;1.73;;
43809;SDS011;29440;48.208;11.162;2023-07-29T07:57:11;2.80;;;1.77;;
43809;SDS011;29440;48.208;11.162;2023-07-29T07:59:37;3.53;;;1.52;;
43809;SDS011;29440;48.208;11.162;2023-07-29T08:02:03;3.22;;;1.85;;
43809;SDS011;29440;48.208;11.162;2023-07-29T08:04:28;2.80;;;1.70;;
43809;SDS011;29440;48.208;11.162;2023-07-29T08:06:54;3.03;;;1.80;;
43809;SDS011;29440;48.208;11.162;2023-07-29T08:09:20;2.28;;;1.40;;
43809;SDS011;29440;48.208;11.162;2023-07-29T08:11:46;2.33;;;1.63;;
43809;SDS011;29440;48.208;11.162;2023-07-29T08:14:11;3.70;;;2.00;;
43809;SDS011;29440;48.208;11.162;2023-07-29T08:16:37;2.92;;;1.83;;
43809;SDS011;29440;48.208;11.162;2023-07-29T08:19:03;3.40;;;1.80;;
43809;SDS011;29440;48.208;11.162;2023-07-29T08:21:29;2.17;;;1.70;;
43809;SDS011;29440;48.208;11.162;2023-07-29T08:23:54;3.63;;;1.55;;
43809;SDS011;29440;48.208;11.162;2023-07-29T08:26:20;4.53;;;1.98;;
43809;SDS011;29440;48.208;11.162;2023-07-29T08:28:46;3.65;;;1.98;;
43809;SDS011;29440;48.208;11.162;2023-07-29T08:31:24;4.60;;;2.75;;
43809;SDS011;29440;48.208;11.162;2023-07-29T08:33:51;6.25;;;2.00;;
43809;SDS011;29440;48.208;11.162;2023-07-29T08:36:17;5.63;;;2.17;;
43809;SDS011;29440;48.208;11.162;2023-07-29T08:38:42;3.03;;;1.73;;
43809;SDS011;29440;48.208;11.162;2023-07-29T08:44:42;5.18;;;2.47;;
43809;SDS011;29440;48.208;11.162;2023-07-29T08:46:49;2.63;;;1.83;;
43809;SDS011;29440;48.208;11.162;2023-07-29T08:49:15;2.80;;;1.90;;
43809;SDS011;29440;48.208;11.162;2023-07-29T08:51:48;3.85;;;2.00;;
43809;SDS011;29440;48.208;11.162;2023-07-29T08:54:14;3.13;;;2.03;;
43809;SDS011;29440;48.208;11.162;2023-07-29T08:56:41;3.28;;;1.80;;
43809;SDS011;29440;48.208;11.162;2023-07-29T08:59:10;2.80;;;2.00;;
43809;SDS011;29440;48.208;11.162;2023-07-29T09:01:41;3.05;;;1.77;;
43809;SDS011;29440;48.208;11.162;2023-07-29T09:04:07;3.35;;;1.90;;
43809;SDS011;29440;48.208;11.162;2023-07-29T09:06:34;3.22;;;1.90;;
43809;SDS011;29440;48.208;11.162;2023-07-29T09:09:01;3.40;;;2.08;;
43809;SDS011;29440;48.208;11.162;2023-07-29T09:11:27;2.78;;;1.90;;
43809;SDS011;29440;48.208;11.162;2023-07-29T09:13:53;3.60;;;2.03;;
43809;SDS011;29440;48.208;11.162;2023-07-29T09:16:22;4.07;;;2.25;;
43809;SDS011;29440;48.208;11.162;2023-07-29T09:18:49;2.75;;;1.98;;
43809;SDS011;29440;48.208;11.162;2023-07-29T09:21:16;5.15;;;2.03;;
43809;SDS011;29440;48.208;11.162;2023-07-29T09:23:50;5.22;;;2.00;;
43809;SDS011;29440;48.208;11.162;2023-07-29T09:26:23;2.97;;;1.73;;
43809;SDS011;29440;48.208;11.162;2023-07-29T09:31:20;3.28;;;2.05;;
43809;SDS011;29440;48.208;11.162;2023-07-29T09:33:47;3.25;;;1.98;;
43809;SDS011;29440;48.208;11.162;2023-07-29T09:36:14;2.92;;;1.95;;
43809;SDS011;29440;48.208;11.162;2023-07-29T09:38:39;4.55;;;2.47;;
43809;SDS011;29440;48.208;11.162;2023-07-29T09:41:05;3.88;;;2.33;;
43809;SDS011;29440;48.208;11.162;2023-07-29T09:43:31;2.03;;;1.50;;
43809;SDS011;29440;48.208;11.162;2023-07-29T09:46:02;3.13;;;1.80;;
43809;SDS011;29440;48.208;11.162;2023-07-29T09:48:31;3.67;;;1.67;;
43809;SDS011;29440;48.208;11.162;2023-07-29T09:51:14;5.35;;;1.83;;
43809;SDS011;29440;48.208;11.162;2023-07-29T09:53:41;2.50;;;1.67;;
43809;SDS011;29440;48.208;11.162;2023-07-29T09:56:08;2.78;;;1.52;;
43809;SDS011;29440;48.208;11.162;2023-07-29T09:58:34;2.42;;;1.58;;
43809;SDS011;29440;48.208;11.162;2023-07-29T10:01:00;2.75;;;1.60;;
43809;SDS011;29440;48.208;11.162;2023-07-29T10:03:26;3.90;;;1.80;;
43809;SDS011;29440;48.208;11.162;2023-07-29T10:05:53;3.10;;;1.60;;
43809;SDS011;29440;48.208;11.162;2023-07-29T10:08:20;2.00;;;1.40;;
43809;SDS011;29440;48.208;11.162;2023-07-29T10:10:49;2.42;;;1.52;;
43809;SDS011;29440;48.208;11.162;2023-07-29T10:13:17;2.75;;;1.40;;
43809;SDS011;29440;48.208;11.162;2023-07-29T10:15:44;2.10;;;1.30;;
43809;SDS011;29440;48.208;11.162;2023-07-29T10:18:11;2.22;;;1.40;;
43809;SDS011;29440;48.208;11.162;2023-07-29T10:20:38;5.18;;;1.50;;
43809;SDS011;29440;48.208;11.162;2023-07-29T10:23:05;1.58;;;0.90;;
43809;SDS011;29440;48.208;11.162;2023-07-29T10:25:37;2.95;;;1.30;;
43809;SDS011;29440;48.208;11.162;2023-07-29T10:28:08;2.22;;;1.48;;
43809;SDS011;29440;48.208;11.162;2023-07-29T10:30:38;2.60;;;1.20;;
43809;SDS011;29440;48.208;11.162;2023-07-29T10:33:04;3.38;;;1.40;;
43809;SDS011;29440;48.208;11.162;2023-07-29T10:35:34;2.78;;;1.40;;
43809;SDS011;29440;48.208;11.162;2023-07-29T10:38:01;1.60;;;1.13;;
43809;SDS011;29440;48.208;11.162;2023-07-29T10:40:52;2.25;;;1.30;;
43809;SDS011;29440;48.208;11.162;2023-07-29T10:45:57;2.30;;;0.70;;
43809;SDS011;29440;48.208;11.162;2023-07-29T10:48:40;1.70;;;0.80;;
43809;SDS011;29440;48.208;11.162;2023-07-29T10:51:23;2.42;;;0.70;;
43809;SDS011;29440;48.208;11.162;2023-07-29T10:53:57;1.37;;;0.73;;
43809;SDS011;29440;48.208;11.162;2023-07-29T10:56:27;2.92;;;0.70;;
43809;SDS011;29440;48.208;11.162;2023-07-29T10:58:58;2.60;;;0.70;;
43809;SDS011;29440;48.208;11.162;2023-07-29T11:01:51;3.17;;;0.73;;
43809;SDS011;29440;48.208;11.162;2023-07-29T11:15:02;1.55;;;1.00;;
43809;SDS011;29440;48.208;11.162;2023-07-29T11:17:29;1.73;;;1.00;;
43809;SDS011;29440;48.208;11.162;2023-07-29T11:19:57;2.13;;;0.93;;
43809;SDS011;29440;48.208;11.162;2023-07-29T11:22:28;1.50;;;1.00;;
43809;SDS011;29440;48.208;11.162;2023-07-29T11:24:54;1.40;;;1.00;;
43809;SDS011;29440;48.208;11.162;2023-07-29T11:27:20;1.98;;;1.00;;
43809;SDS011;29440;48.208;11.162;2023-07-29T11:29:47;3.60;;;1.02;;
43809;SDS011;29440;48.208;11.162;2023-07-29T11:32:13;1.92;;;1.00;;
43809;SDS011;29440;48.208;11.162;2023-07-29T11:34:40;2.75;;;1.10;;
43809;SDS011;29440;48.208;11.162;2023-07-29T11:37:08;3.08;;;1.02;;
43809;SDS011;29440;48.208;11.162;2023-07-29T11:39:42;4.07;;;1.40;;
43809;SDS011;29440;48.208;11.162;2023-07-29T11:42:12;2.58;;;1.10;;
43809;SDS011;29440;48.208;11.162;2023-07-29T11:44:40;2.65;;;1.48;;
43809;SDS011;29440;48.208;11.162;2023-07-29T11:47:11;3.33;;;1.40;;
43809;SDS011;29440;48.208;11.162;2023-07-29T11:49:38;2.70;;;1.20;;
43809;SDS011;29440;48.208;11.162;2023-07-29T11:52:08;1.50;;;1.23;;
43809;SDS011;29440;48.208;11.162;2023-07-29T11:54:39;1.80;;;1.23;;
43809;SDS011;29440;48.208;11.162;2023-07-29T11:57:08;3.15;;;1.45;;
43809;SDS011;29440;48.208;11.162;2023-07-29T11:59:35;2.75;;;1.35;;
43809;SDS011;29440;48.208;11.162;2023-07-29T12:02:12;3.17;;;1.38;;
43809;SDS011;29440;48.208;11.162;2023-07-29T12:04:40;3.22;;;1.52;;
43809;SDS011;29440;48.208;11.162;2023-07-29T12:07:07;4.03;;;1.40;;
43809;SDS011;29440;48.208;11.162;2023-07-29T12:09:36;2.00;;;1.55;;
43809;SDS011;29440;48.208;11.162;2023-07-29T12:12:03;2.83;;;1.70;;
43809;SDS011;29440;48.208;11.162;2023-07-29T12:14:29;5.85;;;1.83;;
43809;SDS011;29440;48.208;11.162;2023-07-29T12:16:55;4.30;;;1.88;;
43809;SDS011;29440;48.208;11.162;2023-07-29T12:19:24;6.45;;;2.17;;
43809;SDS011;29440;48.208;11.162;2023-07-29T12:22:00;6.65;;;2.50;;
43809;SDS011;29440;48.208;11.162;2023-07-29T12:24:31;4.72;;;2.30;;
43809;SDS011;29440;48.208;11.162;2023-07-29T12:26:58;3.30;;;2.25;;
43809;SDS011;29440;48.208;11.162;2023-07-29T12:29:25;3.90;;;2.60;;
43809;SDS011;29440;48.208;11.162;2023-07-29T12:32:03;4.22;;;2.78;;
43809;SDS011;29440;48.208;11.162;2023-07-29T12:34:30;2.83;;;2.30;;
43809;SDS011;29440;48.208;11.162;2023-07-29T12:36:58;3.38;;;2.20;;
43809;SDS011;29440;48.208;11.162;2023-07-29T12:39:25;5.45;;;2.50;;
43809;SDS011;29440;48.208;11.162;2023-07-29T12:41:55;3.20;;;2.47;;
43809;SDS011;29440;48.208;11.162;2023-07-29T12:44:23;5.07;;;2.92;;
43809;SDS011;29440;48.208;11.162;2023-07-29T12:46:50;3.22;;;2.42;;
43809;SDS011;29440;48.208;11.162;2023-07-29T12:49:16;3.85;;;2.40;;
43809;SDS011;29440;48.208;11.162;2023-07-29T12:51:41;3.10;;;2.08;;
43809;SDS011;29440;48.208;11.162;2023-07-29T12:54:08;4.10;;;2.40;;
43809;SDS011;29440;48.208;11.162;2023-07-29T12:56:34;5.15;;;2.20;;
43809;SDS011;29440;48.208;11.162;2023-07-29T12:59:00;2.92;;;2.00;;
43809;SDS011;29440;48.208;11.162;2023-07-29T13:01:35;2.50;;;1.67;;
43809;SDS011;29440;48.208;11.162;2023-07-29T13:04:01;2.92;;;1.40;;
43809;SDS011;29440;48.208;11.162;2023-07-29T13:06:27;4.47;;;1.38;;
43809;SDS011;29440;48.208;11.162;2023-07-29T13:08:52;2.70;;;1.80;;
43809;SDS011;29440;48.208;11.162;2023-07-29T13:11:19;2.03;;;1.40;;
43809;SDS011;29440;48.208;11.162;2023-07-29T13:13:45;4.18;;;1.45;;
43809;SDS011;29440;48.208;11.162;2023-07-29T13:16:12;5.60;;;1.50;;
43809;SDS011;29440;48.208;11.162;2023-07-29T13:18:38;2.20;;;1.48;;
43809;SDS011;29440;48.208;11.162;2023-07-29T13:21:04;3.33;;;1.77;;
43809;SDS011;29440;48.208;11.162;2023-07-29T13:23:30;3.13;;;1.77;;
43809;SDS011;29440;48.208;11.162;2023-07-29T13:25:56;2.47;;;1.90;;
43809;SDS011;29440;48.208;11.162;2023-07-29T13:28:22;3.42;;;2.13;;
43809;SDS011;29440;48.208;11.162;2023-07-29T13:30:48;5.05;;;2.63;;
43809;SDS011;29440;48.208;11.162;2023-07-29T13:33:14;4.35;;;2.33;;
43809;SDS011;29440;48.208;11.162;2023-07-29T13:35:39;3.13;;;2.10;;
43809;SDS011;29440;48.208;11.162;2023-07-29T13:38:05;3.58;;;2.30;;
43809;SDS011;29440;48.208;11.162;2023-07-29T13:40:30;4.00;;;2.42;;
43809;SDS011;29440;48.208;11.162;2023-07-29T13:43:06;3.13;;;2.05;;
43809;SDS011;29440;48.208;11.162;2023-07-29T13:45:33;3.25;;;2.00;;
43809;SDS011;29440;48.208;11.162;2023-07-29T13:48:00;3.67;;;1.60;;
43809;SDS011;29440;48.208;11.162;2023-07-29T13:50:25;4.40;;;1.92;;
43809;SDS011;29440;48.208;11.162;2023-07-29T13:52:51;2.75;;;1.75;;
43809;SDS011;29440;48.208;11.162;2023-07-29T13:55:17;2.63;;;1.50;;
43809;SDS011;29440;48.208;11.162;2023-07-29T13:57:43;2.83;;;1.58;;
43809;SDS011;29440;48.208;11.162;2023-07-29T14:00:09;2.95;;;1.40;;
43809;SDS011;29440;48.208;11.162;2023-07-29T14:02:34;3.60;;;1.30;;
43809;SDS011;29440;48.208;11.162;2023-07-29T14:05:00;1.65;;;1.08;;
43809;SDS011;29440;48.208;11.162;2023-07-29T14:07:26;3.35;;;1.30;;
43809;SDS011;29440;48.208;11.162;2023-07-29T14:09:52;2.65;;;1.35;;
43809;SDS011;29440;48.208;11.162;2023-07-29T14:12:18;2.33;;;1.25;;
43809;SDS011;29440;48.208;11.162;2023-07-29T14:14:43;2.95;;;1.20;;
43809;SDS011;29440;48.208;11.162;2023-07-29T14:17:09;5.78;;;1.55;;
43809;SDS011;29440;48.208;11.162;2023-07-29T14:19:35;6.90;;;1.65;;
43809;SDS011;29440;48.208;11.162;2023-07-29T14:22:04;5.43;;;2.08;;
43809;SDS011;29440;48.208;11.162;2023-07-29T14:24:30;6.65;;;2.03;;
43809;SDS011;29440;48.208;11.162;2023-07-29T14:26:55;3.45;;;1.63;;
43809;SDS011;29440;48.208;11.162;2023-07-29T14:29:21;4.45;;;1.60;;
43809;SDS011;29440;48.208;11.162;2023-07-29T14:31:47;3.42;;;1.70;;
43809;SDS011;29440;48.208;11.162;2023-07-29T14:34:12;5.63;;;2.10;;
43809;SDS011;29440;48.208;11.162;2023-07-29T14:36:38;3.35;;;1.60;;
43809;SDS011;29440;48.208;11.162;2023-07-29T14:39:04;4.15;;;1.67;;
43809;SDS011;29440;48.208;11.162;2023-07-29T14:41:30;3.67;;;1.30;;
43809;SDS011;29440;48.208;11.162;2023-07-29T14:43:56;6.40;;;1.27;;
43809;SDS011;29440;48.208;11.162;2023-07-29T14:46:21;2.40;;;1.00;;
43809;SDS011;29440;48.208;11.162;2023-07-29T14:48:47;12.70;;;1.45;;
43809;SDS011;29440;48.208;11.162;2023-07-29T14:51:14;5.63;;;2.97;;
43809;SDS011;29440;48.208;11.162;2023-07-29T14:53:41;4.50;;;1.50;;
43809;SDS011;29440;48.208;11.162;2023-07-29T14:56:08;3.28;;;1.17;;